createdAt,value
2018-07-27T00:00:23.937Z,21.70
2018-07-27T00:02:52.773Z,21.60
2018-07-27T00:05:21.478Z,21.50
2018-07-27T00:07:50.253Z,21.50
2018-07-27T00:10:19.325Z,21.50
2018-07-27T00:12:48.060Z,21.40
2018-07-27T00:15:16.758Z,21.60
2018-07-27T00:17:45.589Z,21.60
2018-07-27T00:20:14.313Z,21.50
2018-07-27T00:22:43.000Z,21.40
2018-07-27T00:25:11.868Z,21.30
2018-07-27T00:27:40.587Z,21.30
2018-07-27T00:30:09.325Z,21.20
2018-07-27T00:35:06.523Z,21.10
2018-07-27T00:37:35.232Z,20.90
2018-07-27T00:40:04.053Z,20.80
2018-07-27T00:42:32.752Z,20.60
2018-07-27T00:45:01.487Z,20.50
2018-07-27T00:47:30.198Z,20.40
2018-07-27T00:49:58.888Z,20.20
2018-07-27T00:52:27.713Z,20.10
2018-07-27T00:54:56.442Z,20.10
2018-07-27T00:59:53.732Z,19.80
2018-07-27T01:02:22.500Z,19.70
2018-07-27T01:04:51.244Z,19.50
2018-07-27T01:07:20.024Z,19.30
2018-07-27T01:09:48.759Z,19.20
2018-07-27T01:12:17.485Z,19.00
2018-07-27T01:14:46.197Z,19.00
2018-07-27T01:17:14.976Z,18.90
2018-07-27T01:19:43.738Z,18.90
2018-07-27T01:22:12.525Z,18.90
2018-07-27T01:24:41.245Z,18.80
2018-07-27T01:27:10.007Z,18.80
2018-07-27T01:29:38.750Z,18.70
2018-07-27T01:32:07.558Z,18.70
2018-07-27T01:34:36.313Z,18.60
2018-07-27T01:37:05.083Z,18.60
2018-07-27T01:39:33.842Z,18.60
2018-07-27T01:42:02.604Z,18.50
2018-07-27T01:44:31.362Z,18.40
2018-07-27T01:47:00.075Z,18.30
2018-07-27T01:49:28.928Z,18.30
2018-07-27T01:51:57.644Z,18.20
2018-07-27T01:54:26.380Z,18.10
2018-07-27T01:56:55.213Z,17.90
2018-07-27T01:59:23.900Z,17.90
2018-07-27T02:01:52.704Z,17.80
2018-07-27T02:04:21.446Z,17.80
2018-07-27T02:06:50.192Z,17.80
2018-07-27T02:09:18.946Z,17.70
2018-07-27T02:11:47.702Z,17.70
2018-07-27T02:14:16.463Z,17.60
2018-07-27T02:16:45.219Z,17.60
2018-07-27T02:21:42.272Z,17.40
2018-07-27T02:24:10.995Z,17.30
2018-07-27T02:26:39.728Z,17.40
2018-07-27T02:29:08.456Z,17.30
2018-07-27T02:31:37.134Z,17.30
2018-07-27T02:34:05.932Z,17.30
2018-07-27T02:36:34.746Z,17.20
2018-07-27T02:39:04.338Z,17.20
2018-07-27T02:41:33.007Z,17.10
2018-07-27T02:44:01.739Z,17.10
2018-07-27T02:46:30.426Z,17.00
2018-07-27T02:48:59.167Z,16.90
2018-07-27T02:51:27.903Z,16.90
2018-07-27T02:53:56.650Z,16.90
2018-07-27T02:56:25.440Z,16.90
2018-07-27T02:58:54.306Z,16.80
2018-07-27T03:01:23.089Z,16.70
2018-07-27T03:03:51.787Z,16.70
2018-07-27T03:06:20.527Z,16.60
2018-07-27T03:08:49.235Z,16.50
2018-07-27T03:11:17.952Z,16.40
2018-07-27T03:13:46.753Z,16.40
2018-07-27T03:16:15.503Z,16.40
2018-07-27T03:18:44.245Z,16.40
2018-07-27T03:21:12.992Z,16.30
2018-07-27T03:23:41.727Z,16.30
2018-07-27T03:26:10.463Z,16.30
2018-07-27T03:28:39.204Z,16.20
2018-07-27T03:31:08.152Z,16.20
2018-07-27T03:33:36.897Z,16.10
2018-07-27T03:36:05.597Z,16.00
2018-07-27T03:38:34.310Z,16.10
2018-07-27T03:41:03.064Z,16.10
2018-07-27T03:43:31.788Z,16.00
2018-07-27T03:46:00.626Z,16.00
2018-07-27T03:48:29.366Z,15.90
2018-07-27T03:50:58.129Z,15.90
2018-07-27T03:53:26.803Z,15.90
2018-07-27T03:55:55.597Z,15.90
2018-07-27T03:58:24.276Z,15.90
2018-07-27T04:00:53.084Z,16.00
2018-07-27T04:03:21.779Z,15.90
2018-07-27T04:05:50.510Z,15.90
2018-07-27T04:08:19.258Z,15.80
2018-07-27T04:10:48.038Z,15.70
2018-07-27T04:13:16.784Z,15.80
2018-07-27T04:15:45.512Z,15.80
2018-07-27T04:18:14.200Z,15.90
2018-07-27T04:20:42.941Z,15.90
2018-07-27T04:23:11.628Z,15.90
2018-07-27T04:25:40.351Z,15.80
2018-07-27T04:28:09.379Z,15.90
2018-07-27T04:30:38.091Z,15.90
2018-07-27T04:33:06.822Z,16.00
2018-07-27T04:35:35.524Z,16.00
2018-07-27T04:38:04.229Z,16.10
2018-07-27T04:40:32.980Z,16.20
2018-07-27T04:43:01.774Z,16.30
2018-07-27T04:45:30.548Z,16.40
2018-07-27T04:47:59.373Z,16.40
2018-07-27T04:50:28.168Z,16.40
2018-07-27T04:52:56.915Z,16.50
2018-07-27T04:55:25.647Z,16.60
2018-07-27T04:57:54.401Z,16.70
2018-07-27T05:00:23.133Z,16.60
2018-07-27T05:02:51.833Z,16.70
2018-07-27T05:05:20.561Z,16.70
2018-07-27T05:07:49.271Z,16.70
2018-07-27T05:10:23.498Z,16.70
2018-07-27T05:12:52.634Z,16.80
2018-07-27T05:15:21.431Z,16.80
2018-07-27T05:17:50.097Z,16.80
2018-07-27T05:20:18.826Z,16.80
2018-07-27T05:22:47.482Z,16.80
2018-07-27T05:25:16.270Z,16.90
2018-07-27T05:27:44.982Z,16.90
2018-07-27T05:30:13.728Z,16.90
2018-07-27T05:32:42.394Z,17.00
2018-07-27T05:35:11.131Z,17.10
2018-07-27T05:37:39.850Z,17.30
2018-07-27T05:40:08.766Z,17.50
2018-07-27T05:42:37.477Z,18.20
2018-07-27T05:45:06.177Z,19.00
2018-07-27T05:47:34.976Z,19.70
2018-07-27T05:50:03.768Z,20.70
2018-07-27T05:52:32.503Z,21.20
2018-07-27T05:55:01.234Z,21.60
2018-07-27T05:57:29.983Z,22.00
2018-07-27T05:59:58.813Z,22.30
2018-07-27T06:02:27.672Z,22.50
2018-07-27T06:04:56.467Z,22.80
2018-07-27T06:07:25.194Z,23.20
2018-07-27T06:09:54.233Z,23.50
2018-07-27T06:12:23.006Z,23.60
2018-07-27T06:14:51.723Z,23.80
2018-07-27T06:17:20.514Z,24.00
2018-07-27T06:19:49.236Z,24.30
2018-07-27T06:22:18.027Z,24.70
2018-07-27T06:24:50.550Z,25.20
2018-07-27T06:27:19.675Z,26.00
2018-07-27T06:29:48.801Z,26.30
2018-07-27T06:32:18.235Z,26.60
2018-07-27T06:34:47.097Z,26.90
2018-07-27T06:37:15.994Z,27.40
2018-07-27T06:42:14.813Z,28.10
2018-07-27T06:44:43.580Z,28.50
2018-07-27T06:47:12.305Z,28.70
2018-07-27T06:49:41.098Z,29.10
2018-07-27T06:52:09.943Z,29.50
2018-07-27T06:54:38.673Z,30.00
2018-07-27T06:57:10.261Z,30.70
2018-07-27T06:59:39.009Z,30.50
2018-07-27T07:02:07.762Z,31.00
2018-07-27T07:04:36.506Z,31.30
2018-07-27T07:07:05.218Z,31.20
2018-07-27T07:09:33.912Z,31.90
2018-07-27T07:14:31.011Z,32.50
2018-07-27T07:16:59.758Z,32.60
2018-07-27T07:19:28.533Z,32.90
2018-07-27T07:21:57.322Z,33.30
2018-07-27T07:24:26.028Z,33.50
2018-07-27T07:26:54.809Z,34.20
2018-07-27T07:31:51.928Z,35.00
2018-07-27T07:34:20.646Z,35.70
2018-07-27T07:36:49.455Z,35.70
2018-07-27T07:39:18.196Z,36.10
2018-07-27T07:41:46.922Z,36.10
2018-07-27T07:44:15.622Z,36.60
2018-07-27T07:46:44.411Z,36.00
2018-07-27T07:49:13.148Z,36.10
2018-07-27T07:51:41.892Z,36.00
2018-07-27T07:54:10.647Z,36.10
2018-07-27T07:56:39.366Z,36.60
2018-07-27T07:59:08.114Z,36.60
2018-07-27T08:01:36.854Z,36.90
2018-07-27T08:06:13.299Z,37.10
2018-07-27T08:08:42.067Z,37.40
2018-07-27T08:11:10.852Z,37.50
2018-07-27T08:13:39.638Z,37.80
2018-07-27T08:16:08.373Z,37.50
2018-07-27T08:18:37.161Z,37.40
2018-07-27T08:21:05.974Z,37.10
2018-07-27T08:23:34.707Z,36.90
2018-07-27T08:27:08.005Z,37.00
2018-07-27T08:29:40.120Z,37.50
2018-07-27T08:32:09.146Z,37.80
2018-07-27T08:34:38.030Z,37.90
2018-07-27T08:37:07.097Z,37.70
2018-07-27T08:39:37.532Z,37.40
2018-07-27T08:42:06.299Z,37.90
2018-07-27T08:44:36.519Z,38.20
2018-07-27T08:47:05.333Z,38.40
2018-07-27T08:49:34.225Z,38.70
2018-07-27T08:52:03.018Z,38.50
2018-07-27T08:54:31.738Z,37.60
2018-07-27T08:57:00.485Z,37.30
2018-07-27T08:59:29.197Z,37.40
2018-07-27T09:01:58.036Z,38.00
2018-07-27T09:04:26.754Z,38.50
2018-07-27T09:06:55.606Z,38.70
2018-07-27T09:09:24.369Z,38.70
2018-07-27T09:11:53.213Z,38.40
2018-07-27T09:14:21.921Z,38.80
2018-07-27T09:16:50.679Z,38.80
2018-07-27T09:19:19.421Z,38.40
2018-07-27T09:21:48.151Z,38.30
2018-07-27T09:24:17.042Z,38.90
2018-07-27T09:26:45.827Z,38.90
2018-07-27T09:29:14.574Z,37.80
2018-07-27T09:31:43.326Z,38.00
2018-07-27T09:34:12.120Z,37.90
2018-07-27T09:36:40.866Z,37.90
2018-07-27T09:39:10.806Z,38.10
2018-07-27T09:41:39.797Z,38.20
2018-07-27T09:44:08.690Z,38.00
2018-07-27T09:46:37.548Z,38.50
2018-07-27T09:49:06.394Z,37.70
2018-07-27T09:51:35.240Z,37.60
2018-07-27T09:54:04.062Z,37.90
2018-07-27T09:56:32.771Z,37.50
2018-07-27T09:59:01.475Z,38.10
2018-07-27T10:01:30.322Z,38.00
2018-07-27T10:03:59.315Z,37.60
2018-07-27T10:06:28.097Z,37.60
2018-07-27T10:08:56.801Z,38.00
2018-07-27T10:11:25.546Z,38.30
2018-07-27T10:13:54.314Z,38.90
2018-07-27T10:16:23.118Z,38.50
2018-07-27T10:18:51.829Z,38.40
2018-07-27T10:21:20.558Z,38.50
2018-07-27T10:23:49.290Z,38.60
2018-07-27T10:26:18.014Z,38.50
2018-07-27T10:28:46.756Z,38.30
2018-07-27T10:31:15.555Z,38.00
2018-07-27T10:33:44.354Z,38.20
2018-07-27T10:36:13.101Z,38.30
2018-07-27T10:38:41.938Z,38.10
2018-07-27T10:41:10.765Z,37.70
2018-07-27T10:43:39.511Z,37.40
2018-07-27T10:46:08.210Z,37.70
2018-07-27T10:48:43.574Z,37.60
2018-07-27T10:51:12.304Z,37.70
2018-07-27T10:53:41.097Z,37.20
2018-07-27T10:56:09.825Z,37.00
2018-07-27T10:58:38.496Z,37.20
2018-07-27T11:01:07.684Z,36.80
2018-07-27T11:03:36.411Z,36.60
2018-07-27T11:06:05.138Z,36.20
2018-07-27T11:08:33.847Z,35.90
2018-07-27T11:11:02.682Z,35.70
2018-07-27T11:13:31.353Z,35.80
2018-07-27T11:16:00.069Z,36.20
2018-07-27T11:18:28.926Z,35.90
2018-07-27T11:20:57.688Z,35.70
2018-07-27T11:23:26.381Z,35.70
2018-07-27T11:25:55.085Z,35.60
2018-07-27T11:28:23.835Z,35.60
2018-07-27T11:30:52.540Z,35.40
2018-07-27T11:33:21.330Z,35.10
2018-07-27T11:35:50.191Z,34.90
2018-07-27T11:38:18.885Z,34.80
2018-07-27T11:40:47.619Z,34.60
2018-07-27T11:43:16.361Z,34.70
2018-07-27T11:45:45.113Z,34.60
2018-07-27T11:48:13.837Z,34.70
2018-07-27T11:50:42.504Z,34.50
2018-07-27T11:53:11.379Z,34.60
2018-07-27T11:55:40.080Z,34.60
2018-07-27T11:58:08.785Z,34.50
2018-07-27T12:00:37.555Z,34.50
2018-07-27T12:03:07.395Z,34.40
2018-07-27T12:05:36.128Z,34.30
2018-07-27T12:08:04.863Z,34.40
2018-07-27T12:10:33.595Z,34.30
2018-07-27T12:13:02.334Z,34.50
2018-07-27T12:15:31.070Z,34.70
2018-07-27T12:17:59.789Z,34.70
2018-07-27T12:20:28.658Z,34.60
2018-07-27T12:22:57.358Z,34.50
2018-07-27T12:25:26.100Z,34.50
2018-07-27T12:27:57.713Z,34.60
2018-07-27T12:30:29.451Z,34.50
2018-07-27T12:32:58.785Z,34.50
2018-07-27T12:35:27.515Z,34.40
2018-07-27T12:37:56.287Z,34.40
2018-07-27T12:40:25.034Z,34.20
2018-07-27T12:42:53.902Z,34.30
2018-07-27T12:45:22.646Z,34.20
2018-07-27T12:47:51.447Z,34.40
2018-07-27T12:50:20.169Z,34.40
2018-07-27T12:55:17.180Z,34.50
2018-07-27T12:57:45.929Z,34.50
2018-07-27T13:00:14.644Z,34.50
2018-07-27T13:02:43.348Z,34.40
2018-07-27T13:05:12.152Z,34.20
2018-07-27T13:07:40.857Z,34.20
2018-07-27T13:10:09.615Z,34.30
2018-07-27T13:12:38.910Z,34.20
2018-07-27T13:15:08.704Z,34.30
2018-07-27T13:17:37.694Z,34.30
2018-07-27T13:20:07.257Z,34.20
2018-07-27T13:22:36.012Z,34.20
2018-07-27T13:25:05.409Z,34.20
2018-07-27T13:27:34.131Z,34.20
2018-07-27T13:30:02.934Z,34.20
2018-07-27T13:32:31.734Z,34.20
2018-07-27T13:35:01.252Z,34.30
2018-07-27T13:40:01.205Z,34.20
2018-07-27T13:42:31.174Z,34.20
2018-07-27T13:45:00.226Z,34.30
2018-07-27T13:47:29.051Z,34.30
2018-07-27T13:49:57.730Z,34.30
2018-07-27T13:52:26.514Z,34.30
2018-07-27T13:54:55.232Z,34.30
2018-07-27T13:57:24.017Z,34.30
2018-07-27T13:59:52.700Z,34.20
2018-07-27T14:02:21.410Z,34.30
2018-07-27T14:04:50.145Z,34.40
2018-07-27T14:07:18.902Z,34.20
2018-07-27T14:09:47.562Z,34.10
2018-07-27T14:12:16.324Z,34.10
2018-07-27T14:14:45.037Z,34.20
2018-07-27T14:17:13.851Z,34.10
2018-07-27T14:19:42.721Z,34.20
2018-07-27T14:22:11.478Z,34.10
2018-07-27T14:24:40.225Z,34.20
2018-07-27T14:27:09.005Z,34.30
2018-07-27T14:29:37.746Z,34.20
2018-07-27T14:32:06.455Z,34.30
2018-07-27T14:34:35.250Z,34.30
2018-07-27T14:37:04.022Z,34.30
2018-07-27T14:39:32.767Z,34.40
2018-07-27T14:42:01.514Z,34.50
2018-07-27T14:44:30.347Z,34.60
2018-07-27T14:46:59.010Z,34.60
2018-07-27T14:49:27.754Z,34.80
2018-07-27T14:51:56.457Z,34.80
2018-07-27T14:54:25.255Z,35.00
2018-07-27T14:56:54.139Z,34.90
2018-07-27T14:59:22.916Z,35.00
2018-07-27T15:01:51.695Z,35.00
2018-07-27T15:04:20.593Z,35.30
2018-07-27T15:06:49.326Z,35.30
2018-07-27T15:09:18.061Z,35.40
2018-07-27T15:25:59.202Z,36.10
2018-07-27T15:28:28.977Z,36.10
2018-07-27T15:30:57.821Z,36.20
2018-07-27T15:33:26.635Z,36.20
2018-07-27T15:35:55.629Z,36.30
2018-07-27T15:38:24.368Z,36.50
2018-07-27T15:40:53.103Z,36.40
2018-07-27T15:43:21.881Z,36.40
2018-07-27T15:45:50.601Z,36.50
2018-07-27T15:48:19.361Z,36.50
2018-07-27T15:50:48.120Z,36.50
2018-07-27T15:53:16.828Z,36.40
2018-07-27T15:55:45.619Z,36.20
2018-07-27T15:58:14.260Z,36.20
2018-07-27T16:00:43.069Z,36.20
2018-07-27T16:03:11.760Z,36.10
2018-07-27T16:05:40.484Z,36.10
2018-07-27T16:08:09.175Z,36.10
2018-07-27T16:10:38.091Z,36.00
2018-07-27T16:13:06.772Z,35.80
2018-07-27T16:15:35.527Z,36.00
2018-07-27T16:18:04.255Z,35.90
2018-07-27T16:20:32.933Z,35.90
2018-07-27T16:23:01.625Z,36.00
2018-07-27T16:25:30.319Z,36.10
2018-07-27T16:27:58.996Z,36.20
2018-07-27T16:30:27.689Z,36.10
2018-07-27T16:32:56.385Z,36.00
2018-07-27T16:37:53.539Z,36.20
2018-07-27T16:40:22.231Z,36.20
2018-07-27T16:42:50.910Z,36.10
2018-07-27T16:45:19.617Z,36.20
2018-07-27T16:47:48.286Z,35.90
2018-07-27T16:50:16.924Z,35.70
2018-07-27T16:52:45.661Z,35.60
2018-07-27T16:55:14.315Z,35.70
2018-07-27T16:57:43.137Z,35.60
2018-07-27T17:00:11.781Z,35.40
2018-07-27T17:02:40.552Z,35.40
2018-07-27T17:05:09.193Z,35.30
2018-07-27T17:07:37.875Z,35.00
2018-07-27T17:10:06.750Z,34.90
2018-07-27T17:12:35.673Z,34.70
2018-07-27T17:15:04.710Z,34.50
2018-07-27T17:17:33.822Z,34.30
2018-07-27T17:20:02.466Z,34.10
2018-07-27T17:22:31.118Z,33.90
2018-07-27T17:24:59.811Z,33.80
2018-07-27T17:27:28.513Z,33.70
2018-07-27T17:29:58.153Z,33.70
2018-07-27T17:32:26.824Z,33.60
2018-07-27T17:34:55.708Z,33.50
2018-07-27T17:37:24.402Z,33.50
2018-07-27T17:39:53.114Z,33.40
2018-07-27T17:42:21.810Z,33.30
2018-07-27T17:44:50.457Z,33.30
2018-07-27T17:47:19.177Z,33.10
2018-07-27T17:49:47.859Z,33.00
2018-07-27T17:52:16.554Z,33.00
2018-07-27T17:54:45.253Z,32.80
2018-07-27T17:57:14.049Z,32.80
2018-07-27T17:59:42.851Z,32.70
2018-07-27T18:02:11.657Z,32.70
2018-07-27T18:04:40.297Z,32.60
2018-07-27T18:07:09.062Z,32.60
2018-07-27T18:09:38.058Z,32.30
2018-07-27T18:12:07.419Z,32.20
2018-07-27T18:14:36.088Z,31.90
2018-07-27T18:17:04.949Z,31.70
2018-07-27T18:19:33.668Z,31.70
2018-07-27T18:22:02.383Z,31.50
2018-07-27T18:24:31.284Z,31.40
2018-07-27T18:26:59.990Z,31.20
2018-07-27T18:29:28.617Z,31.20
2018-07-27T18:31:57.383Z,31.10
2018-07-27T18:34:26.086Z,31.00
2018-07-27T18:36:54.937Z,30.90
2018-07-27T18:39:23.629Z,30.80
2018-07-27T18:41:52.326Z,30.70
2018-07-27T18:44:21.002Z,30.60
2018-07-27T18:46:49.657Z,30.40
2018-07-27T18:49:18.426Z,30.20
2018-07-27T18:51:47.832Z,30.00
2018-07-27T18:54:16.545Z,29.80
2018-07-27T18:56:45.312Z,29.70
2018-07-27T18:59:13.958Z,29.60
2018-07-27T19:01:42.797Z,29.40
2018-07-27T19:04:11.468Z,29.20
2018-07-27T19:06:40.187Z,29.00
2018-07-27T19:09:11.395Z,28.80
2018-07-27T19:11:40.072Z,28.60
2018-07-27T19:14:09.153Z,28.30
2018-07-27T19:16:37.825Z,28.20
2018-07-27T19:19:07.028Z,28.10
2018-07-27T19:21:35.758Z,27.80
2018-07-27T19:24:04.519Z,27.60
2018-07-27T19:26:33.184Z,27.40
2018-07-27T19:29:01.829Z,27.20
2018-07-27T19:31:30.569Z,26.90
2018-07-27T19:33:59.278Z,26.80
2018-07-27T19:36:28.158Z,26.70
2018-07-27T19:38:56.930Z,26.50
2018-07-27T19:41:25.765Z,26.40
2018-07-27T19:43:54.905Z,26.30
2018-07-27T19:46:23.929Z,26.10
2018-07-27T19:48:52.603Z,25.90
2018-07-27T19:51:21.240Z,25.80
2018-07-27T19:53:49.917Z,25.70
2018-07-27T19:56:18.565Z,25.60
2018-07-27T19:58:47.251Z,25.40
2018-07-27T20:01:15.892Z,25.30
2018-07-27T20:03:44.590Z,25.30
2018-07-27T20:06:13.282Z,25.10
2018-07-27T20:08:41.939Z,25.00
2018-07-27T20:11:10.638Z,25.00
2018-07-27T20:13:39.405Z,24.80
2018-07-27T20:16:08.075Z,24.80
2018-07-27T20:18:36.721Z,24.80
2018-07-27T20:21:05.466Z,24.70
2018-07-27T20:23:34.178Z,24.70
2018-07-27T20:26:02.854Z,24.60
2018-07-27T20:28:31.577Z,24.50
2018-07-27T20:31:00.203Z,24.40
2018-07-27T20:33:28.903Z,24.30
2018-07-27T20:35:57.602Z,24.30
2018-07-27T20:38:26.281Z,24.20
2018-07-27T20:40:55.469Z,24.20
2018-07-27T20:43:24.246Z,24.10
2018-07-27T20:45:52.963Z,24.10
2018-07-27T20:48:21.649Z,24.00
2018-07-27T20:50:50.322Z,24.00
2018-07-27T20:53:19.055Z,24.00
2018-07-27T20:58:16.150Z,23.90
2018-07-27T21:00:44.853Z,23.80
2018-07-27T21:03:13.535Z,23.70
2018-07-27T21:05:42.234Z,23.60
2018-07-27T21:08:10.882Z,23.50
2018-07-27T21:10:39.587Z,23.50
2018-07-27T21:13:08.270Z,23.40
2018-07-27T21:15:36.927Z,23.40
2018-07-27T21:18:05.626Z,23.40
2018-07-27T21:20:34.342Z,23.30
2018-07-27T21:23:03.099Z,23.30
2018-07-27T21:25:31.950Z,23.30
2018-07-27T21:28:00.840Z,23.20
2018-07-27T21:30:29.523Z,23.20
2018-07-27T21:32:58.163Z,23.10
2018-07-27T21:35:26.846Z,23.00
2018-07-27T21:37:55.537Z,23.00
2018-07-27T21:40:24.284Z,22.90
2018-07-27T21:42:52.988Z,22.90
2018-07-27T21:45:21.627Z,22.90
2018-07-27T21:47:50.330Z,23.00
2018-07-27T21:50:18.950Z,22.90
2018-07-27T21:52:47.734Z,23.00
2018-07-27T21:55:16.506Z,23.00
2018-07-27T21:57:45.590Z,22.90
2018-07-27T22:00:14.505Z,22.80
2018-07-27T22:02:43.597Z,22.80
2018-07-27T22:05:12.352Z,22.70
2018-07-27T22:07:40.996Z,22.60
2018-07-27T22:10:09.732Z,22.60
2018-07-27T22:12:38.393Z,22.60
2018-07-27T22:15:11.327Z,22.70
2018-07-27T22:17:40.311Z,22.60
2018-07-27T22:20:09.514Z,22.70
2018-07-27T22:22:38.375Z,22.70
2018-07-27T22:25:07.387Z,22.60
2018-07-27T22:27:36.043Z,22.60
2018-07-27T22:30:06.068Z,22.90
2018-07-27T22:32:34.816Z,23.20
2018-07-27T22:35:03.532Z,23.20
2018-07-27T22:37:32.368Z,23.30
2018-07-27T22:40:01.535Z,23.40
2018-07-27T22:42:30.527Z,23.40
2018-07-27T22:44:59.303Z,23.40
2018-07-27T22:47:28.075Z,23.40
2018-07-27T22:49:56.850Z,23.40
2018-07-27T22:52:25.692Z,23.40
2018-07-27T22:54:54.831Z,23.40
2018-07-27T22:57:23.473Z,23.30
2018-07-27T22:59:52.180Z,23.30
2018-07-27T23:02:21.020Z,23.50
2018-07-27T23:04:49.998Z,23.50
2018-07-27T23:07:18.770Z,23.50
2018-07-27T23:09:47.390Z,23.40
2018-07-27T23:12:16.062Z,23.50
2018-07-27T23:14:44.761Z,23.50
2018-07-27T23:17:13.491Z,23.50
2018-07-27T23:19:42.160Z,23.40
2018-07-27T23:22:10.795Z,23.30
2018-07-27T23:24:39.461Z,23.10
2018-07-27T23:27:08.143Z,23.10
2018-07-27T23:29:36.793Z,23.00
2018-07-27T23:32:05.473Z,23.00
2018-07-27T23:34:34.317Z,23.10
2018-07-27T23:37:03.005Z,23.10
2018-07-27T23:39:31.646Z,23.30
2018-07-27T23:42:00.395Z,23.40
2018-07-27T23:44:29.052Z,23.60
2018-07-27T23:46:57.943Z,23.40
2018-07-27T23:49:26.573Z,23.30
2018-07-27T23:51:55.332Z,23.30
2018-07-27T23:54:24.013Z,23.30
2018-07-27T23:56:55.484Z,23.20
2018-07-27T23:59:24.188Z,23.10
